Terminal Aerodrome Forecast
Issued by NWS

Home | Current Version | Previous Version | Graphics & Text | Print | Product List | Glossary On
Versions: 1 2 3 4 5 6 7 8 9 10 11 12 13 14 15 16
000
FTUS43 KABR 171534 AAA
TAFPIR
TAF AMD
KPIR 171534Z 1716/1812 34007KT P6SM BKN090
      TEMPO 1716/1718 P6SM -RA BKN030
     FM171900 35006KT P6SM BKN100
     FM180100 35008KT P6SM VCSH OVC050
     FM180400 33007KT P6SM BKN080=

USA.gov is the U.S. government's official web portal to all federal, state and local government web resources and services.